createdAt,value
2023-01-05T00:00:12.360Z,0.80
2023-01-05T00:02:41.868Z,0.90
2023-01-05T00:05:11.632Z,1.10
2023-01-05T00:07:41.134Z,0.87
2023-01-05T00:10:12.648Z,0.67
2023-01-05T00:12:59.869Z,0.47
2023-01-05T00:15:47.100Z,0.70
2023-01-05T00:18:27.627Z,0.63
2023-01-05T00:21:14.850Z,0.57
2023-01-05T00:23:45.484Z,1.00
2023-01-05T00:26:14.956Z,0.97
2023-01-05T00:28:44.466Z,0.80
2023-01-05T00:31:13.927Z,1.10
2023-01-05T00:33:43.363Z,0.90
2023-01-05T00:36:13.185Z,0.70
2023-01-05T00:38:42.646Z,0.60
2023-01-05T00:41:12.084Z,0.63
2023-01-05T00:43:41.527Z,0.60
2023-01-05T00:46:11.049Z,0.60
2023-01-05T00:48:40.511Z,0.80
2023-01-05T00:51:09.946Z,1.07
2023-01-05T00:53:39.428Z,0.80
2023-01-05T00:56:09.101Z,0.60
2023-01-05T00:58:38.558Z,0.93
2023-01-05T01:01:15.242Z,0.97
2023-01-05T01:03:44.847Z,0.60
2023-01-05T01:06:15.932Z,0.70
2023-01-05T01:08:45.447Z,1.00
2023-01-05T01:11:16.561Z,0.70
2023-01-05T01:13:48.989Z,1.00
2023-01-05T01:16:18.712Z,0.80
2023-01-05T01:18:48.141Z,0.70
2023-01-05T01:21:17.768Z,0.83
2023-01-05T01:23:47.214Z,0.73
2023-01-05T01:26:16.912Z,0.87
2023-01-05T01:28:50.717Z,1.03
2023-01-05T01:31:20.219Z,1.30
2023-01-05T01:33:49.713Z,1.10
2023-01-05T01:36:19.227Z,1.03
2023-01-05T01:38:48.686Z,0.90
2023-01-05T01:41:18.138Z,0.60
2023-01-05T01:43:52.491Z,0.87
2023-01-05T01:46:24.829Z,0.60
2023-01-05T01:49:01.624Z,0.60
2023-01-05T01:51:48.203Z,0.80
2023-01-05T01:54:19.857Z,0.70
2023-01-05T01:56:56.298Z,0.50
2023-01-05T01:59:27.850Z,0.50
2023-01-05T02:02:01.776Z,0.63
2023-01-05T02:04:34.502Z,0.50
2023-01-05T02:07:04.881Z,0.40
2023-01-05T02:09:34.745Z,0.50
2023-01-05T02:12:14.645Z,0.57
2023-01-05T02:15:24.716Z,0.60
2023-01-05T02:18:16.997Z,0.70
2023-01-05T02:21:08.963Z,0.37
2023-01-05T02:23:56.496Z,1.00
2023-01-05T02:26:47.749Z,0.87
2023-01-05T02:29:45.695Z,0.50
2023-01-05T02:32:31.605Z,0.70
2023-01-05T02:35:23.203Z,0.93
2023-01-05T02:38:17.723Z,0.50
2023-01-05T02:40:51.819Z,0.60
2023-01-05T02:43:22.274Z,0.50
2023-01-05T02:45:51.951Z,0.77
2023-01-05T02:48:21.473Z,1.00
2023-01-05T02:51:04.594Z,0.83
2023-01-05T02:53:41.573Z,0.60
2023-01-05T02:56:24.450Z,0.70
2023-01-05T02:59:01.159Z,0.77
2023-01-05T03:01:41.353Z,0.60
2023-01-05T03:04:26.737Z,0.60
2023-01-05T03:07:00.844Z,0.60
2023-01-05T03:09:36.166Z,0.90
2023-01-05T03:12:45.713Z,0.40
2023-01-05T03:15:25.570Z,0.50
2023-01-05T03:17:59.628Z,0.50
2023-01-05T03:20:33.185Z,0.50
2023-01-05T03:23:24.082Z,0.67
2023-01-05T03:26:13.592Z,0.73
2023-01-05T03:29:10.880Z,0.50
2023-01-05T03:32:17.601Z,0.80
2023-01-05T03:35:09.220Z,0.47
2023-01-05T03:37:43.283Z,0.43
2023-01-05T03:40:23.261Z,0.97
2023-01-05T03:42:53.160Z,0.60
2023-01-05T03:45:25.420Z,0.83
2023-01-05T03:47:55.961Z,0.43
2023-01-05T03:50:25.402Z,0.67
2023-01-05T03:52:55.461Z,0.70
2023-01-05T03:55:24.987Z,0.67
2023-01-05T03:57:55.100Z,0.57
2023-01-05T04:00:25.612Z,0.70
2023-01-05T04:02:55.359Z,0.57
2023-01-05T04:05:24.935Z,0.50
2023-01-05T04:07:54.459Z,0.40
2023-01-05T04:10:23.897Z,0.70
2023-01-05T04:12:53.380Z,0.60
2023-01-05T04:15:22.839Z,0.30
2023-01-05T04:17:52.318Z,0.30
2023-01-05T04:20:21.773Z,0.47
2023-01-05T04:22:51.862Z,0.67
2023-01-05T04:25:21.334Z,0.50
2023-01-05T04:27:50.761Z,0.67
2023-01-05T04:30:21.491Z,0.60
2023-01-05T04:32:50.939Z,0.40
2023-01-05T04:35:20.416Z,0.40
2023-01-05T04:37:49.867Z,0.50
2023-01-05T04:40:19.313Z,0.50
2023-01-05T04:42:49.959Z,0.37
2023-01-05T04:45:19.418Z,0.70
2023-01-05T04:47:48.874Z,0.77
2023-01-05T04:50:19.898Z,0.50
2023-01-05T04:52:49.365Z,0.30
2023-01-05T04:55:18.892Z,0.50
2023-01-05T04:57:48.333Z,0.43
2023-01-05T05:00:17.909Z,0.50
2023-01-05T05:02:47.835Z,0.40
2023-01-05T05:05:17.703Z,0.30
2023-01-05T05:07:47.172Z,0.43
2023-01-05T05:10:18.253Z,0.50
2023-01-05T05:12:47.834Z,0.57
2023-01-05T05:15:17.860Z,0.50
2023-01-05T05:17:48.324Z,0.77
2023-01-05T05:20:18.200Z,0.62
2023-01-05T05:22:47.677Z,0.70
2023-01-05T05:25:17.107Z,0.40
2023-01-05T05:27:46.589Z,0.70
2023-01-05T05:30:16.168Z,0.43
2023-01-05T05:32:45.628Z,0.60
2023-01-05T05:35:15.128Z,0.40
2023-01-05T05:37:44.675Z,0.40
2023-01-05T05:40:15.262Z,0.30
2023-01-05T05:42:44.717Z,0.60
2023-01-05T05:45:14.155Z,0.40
2023-01-05T05:47:44.758Z,0.53
2023-01-05T05:50:14.195Z,0.80
2023-01-05T05:52:43.655Z,0.70
2023-01-05T05:55:13.102Z,0.50
2023-01-05T05:57:42.584Z,0.30
2023-01-05T06:00:13.028Z,0.63
2023-01-05T06:02:42.657Z,0.40
2023-01-05T06:05:12.209Z,0.47
2023-01-05T06:07:41.718Z,0.30
2023-01-05T06:10:11.589Z,0.30
2023-01-05T06:12:41.144Z,0.20
2023-01-05T06:15:11.345Z,0.53
2023-01-05T06:17:40.831Z,0.40
2023-01-05T06:20:11.038Z,0.33
2023-01-05T06:22:40.507Z,0.30
2023-01-05T06:25:11.028Z,0.37
2023-01-05T06:27:40.493Z,0.30
2023-01-05T06:30:10.598Z,0.40
2023-01-05T06:32:40.049Z,0.50
2023-01-05T06:35:09.921Z,0.20
2023-01-05T06:37:39.367Z,0.20
2023-01-05T06:40:11.504Z,0.30
2023-01-05T06:42:41.826Z,0.30
2023-01-05T06:45:15.087Z,0.33
2023-01-05T06:47:46.062Z,0.63
2023-01-05T06:50:15.516Z,0.60
2023-01-05T06:52:45.188Z,0.30
2023-01-05T06:55:14.897Z,0.50
2023-01-05T06:57:44.380Z,0.50
2023-01-05T07:00:14.980Z,0.40
2023-01-05T07:02:44.754Z,0.30
2023-01-05T07:05:14.251Z,0.63
2023-01-05T07:07:43.786Z,0.50
2023-01-05T07:10:13.505Z,0.20
2023-01-05T07:12:42.970Z,0.30
2023-01-05T07:15:12.980Z,0.50
2023-01-05T07:17:42.416Z,0.30
2023-01-05T07:20:12.025Z,0.30
2023-01-05T07:22:41.460Z,0.30
2023-01-05T07:25:11.510Z,0.30
2023-01-05T07:27:40.986Z,0.20
2023-01-05T07:30:11.794Z,0.20
2023-01-05T07:32:41.259Z,0.43
2023-01-05T07:35:10.981Z,0.20
2023-01-05T07:37:40.425Z,0.40
2023-01-05T07:40:10.857Z,0.33
2023-01-05T07:42:40.307Z,0.40
2023-01-05T07:45:10.253Z,0.30
2023-01-05T07:47:41.158Z,0.33
2023-01-05T07:50:10.883Z,0.30
2023-01-05T07:52:40.393Z,0.30
2023-01-05T07:55:10.259Z,0.30
2023-01-05T07:57:39.695Z,0.20
2023-01-05T08:00:11.149Z,0.20
2023-01-05T08:02:40.643Z,0.20
2023-01-05T08:05:10.861Z,0.20
2023-01-05T08:07:40.399Z,0.27
2023-01-05T08:10:29.540Z,0.17
2023-01-05T08:13:25.494Z,0.20
2023-01-05T08:15:57.262Z,0.30
2023-01-05T08:18:27.854Z,0.30
2023-01-05T08:21:00.923Z,0.30
2023-01-05T08:23:30.357Z,0.20
2023-01-05T08:26:05.975Z,0.33
2023-01-05T08:28:37.678Z,0.40
2023-01-05T08:31:14.068Z,0.30
2023-01-05T08:33:43.966Z,0.43
2023-01-05T08:36:17.576Z,0.40
2023-01-05T08:38:49.073Z,0.40
2023-01-05T08:41:28.927Z,0.30
2023-01-05T08:44:02.313Z,0.37
2023-01-05T08:46:35.835Z,0.33
2023-01-05T08:49:09.510Z,0.30
2023-01-05T08:51:39.704Z,0.30
2023-01-05T08:54:09.149Z,0.20
2023-01-05T08:56:39.576Z,0.30
2023-01-05T08:59:10.895Z,0.20
2023-01-05T09:01:40.447Z,0.20
2023-01-05T09:04:10.193Z,0.20
2023-01-05T09:06:39.601Z,0.30
2023-01-05T09:09:09.396Z,0.30
2023-01-05T09:11:38.834Z,0.30
2023-01-05T09:14:08.298Z,0.20
2023-01-05T09:17:08.703Z,0.53
2023-01-05T09:19:10.299Z,0.30
2023-01-05T09:21:39.870Z,0.57
2023-01-05T09:24:14.624Z,0.40
2023-01-05T09:26:45.877Z,0.30
2023-01-05T09:29:15.811Z,0.20
2023-01-05T09:31:46.028Z,0.40
2023-01-05T09:34:15.547Z,0.63
2023-01-05T09:36:45.035Z,0.40
2023-01-05T09:39:14.999Z,0.50
2023-01-05T09:41:58.931Z,0.40
2023-01-05T09:44:41.892Z,0.30
2023-01-05T09:47:18.723Z,0.40
2023-01-05T09:49:51.607Z,0.23
2023-01-05T09:52:23.636Z,0.60
2023-01-05T09:54:53.093Z,0.20
2023-01-05T09:57:31.606Z,0.60
2023-01-05T10:00:07.393Z,0.83
2023-01-05T10:02:46.741Z,0.47
2023-01-05T10:05:18.975Z,0.50
2023-01-05T10:08:05.343Z,0.47
2023-01-05T10:11:11.885Z,0.70
2023-01-05T10:13:45.859Z,0.50
2023-01-05T10:16:18.544Z,0.90
2023-01-05T10:18:48.866Z,0.60
2023-01-05T10:21:43.864Z,0.60
2023-01-05T10:24:33.718Z,0.53
2023-01-05T10:27:25.390Z,0.47
2023-01-05T10:29:51.824Z,0.50
2023-01-05T10:32:49.291Z,0.43
2023-01-05T10:36:00.899Z,0.80
2023-01-05T10:38:25.763Z,0.30
2023-01-05T10:41:08.892Z,0.50
2023-01-05T10:44:07.005Z,0.53
2023-01-05T10:46:45.902Z,0.50
2023-01-05T10:49:19.310Z,0.50
2023-01-05T10:51:56.499Z,0.50
2023-01-05T10:54:40.083Z,0.60
2023-01-05T10:57:36.636Z,0.50
2023-01-05T11:00:17.412Z,0.70
2023-01-05T11:03:00.745Z,1.00
2023-01-05T11:05:45.948Z,0.87
2023-01-05T11:08:20.002Z,0.80
2023-01-05T11:11:02.993Z,0.73
2023-01-05T11:13:42.958Z,0.77
2023-01-05T11:16:22.876Z,1.20
2023-01-05T11:19:00.309Z,1.10
2023-01-05T11:21:41.160Z,1.60
2023-01-05T11:24:30.364Z,2.07
2023-01-05T11:27:06.309Z,2.00
2023-01-05T11:29:35.843Z,1.40
2023-01-05T11:32:13.432Z,1.40
2023-01-05T11:34:52.316Z,1.20
2023-01-05T11:37:28.780Z,1.00
2023-01-05T11:40:05.034Z,0.70
2023-01-05T11:42:39.888Z,1.40
2023-01-05T11:45:25.588Z,0.77
2023-01-05T11:47:59.954Z,0.73
2023-01-05T11:50:33.562Z,0.70
2023-01-05T11:53:04.421Z,0.93
2023-01-05T11:55:41.264Z,0.70
2023-01-05T11:58:20.677Z,0.60
2023-01-05T12:01:18.831Z,0.90
2023-01-05T12:04:17.359Z,0.70
2023-01-05T12:07:09.974Z,0.70
2023-01-05T12:10:15.639Z,0.40
2023-01-05T12:13:10.003Z,0.70
2023-01-05T12:16:19.090Z,0.80
2023-01-05T12:18:58.812Z,0.97
2023-01-05T12:21:41.835Z,0.90
2023-01-05T12:24:41.902Z,0.90
2023-01-05T12:28:05.516Z,2.20
2023-01-05T12:36:11.612Z,3.00
2023-01-05T12:39:12.629Z,2.37
2023-01-05T12:42:01.596Z,1.50
2023-01-05T12:44:50.798Z,1.40
2023-01-05T12:47:48.815Z,1.13
2023-01-05T12:50:37.882Z,0.67
2023-01-05T12:53:20.677Z,0.57
2023-01-05T12:56:00.066Z,0.70
2023-01-05T12:58:42.389Z,0.70
2023-01-05T13:01:16.598Z,0.57
2023-01-05T13:03:59.658Z,0.37
2023-01-05T13:06:32.456Z,0.50
2023-01-05T13:09:12.304Z,1.00
2023-01-05T13:11:51.887Z,0.50
2023-01-05T13:14:25.905Z,1.00
2023-01-05T13:17:17.870Z,0.60
2023-01-05T13:19:54.299Z,0.60
2023-01-05T13:22:31.267Z,0.60
2023-01-05T13:25:20.649Z,0.50
2023-01-05T13:27:50.340Z,0.50
2023-01-05T13:30:35.631Z,0.47
2023-01-05T13:33:39.328Z,0.60
2023-01-05T13:36:55.578Z,0.80
2023-01-05T13:39:50.456Z,0.30
2023-01-05T13:42:42.719Z,0.60
2023-01-05T13:46:03.092Z,0.50
2023-01-05T13:48:44.758Z,0.40
2023-01-05T13:51:35.453Z,0.47
2023-01-05T13:54:13.183Z,0.50
2023-01-05T13:56:42.123Z,0.60
2023-01-05T13:59:35.407Z,0.50
2023-01-05T14:02:01.566Z,0.50
2023-01-05T14:04:34.833Z,0.50
2023-01-05T14:07:09.121Z,0.70
2023-01-05T14:09:43.167Z,0.40
2023-01-05T14:12:20.128Z,0.70
2023-01-05T14:15:12.582Z,0.73
2023-01-05T14:18:07.504Z,0.40
2023-01-05T14:20:49.915Z,0.20
2023-01-05T14:23:32.429Z,0.50
2023-01-05T14:26:04.757Z,0.40
2023-01-05T14:28:42.245Z,0.40
2023-01-05T14:31:18.989Z,0.40
2023-01-05T14:33:58.632Z,0.30
2023-01-05T14:36:59.778Z,0.83
2023-01-05T14:39:39.194Z,0.40
2023-01-05T14:42:15.810Z,0.67
2023-01-05T14:44:55.631Z,0.50
2023-01-05T14:47:44.877Z,0.57
2023-01-05T14:50:37.267Z,0.60
2023-01-05T14:53:16.920Z,0.50
2023-01-05T14:56:00.126Z,0.50
2023-01-05T14:58:43.332Z,0.30
2023-01-05T15:01:26.383Z,0.30
2023-01-05T15:04:03.299Z,0.50
2023-01-05T15:07:04.210Z,0.30
2023-01-05T15:10:01.137Z,0.40
2023-01-05T15:16:31.664Z,0.40
2023-01-05T15:19:17.487Z,0.60
2023-01-05T15:21:54.574Z,0.60
2023-01-05T15:24:52.836Z,0.53
2023-01-05T15:27:32.396Z,0.50
2023-01-05T15:30:45.289Z,0.40
2023-01-05T15:33:39.953Z,0.40
2023-01-05T15:36:16.767Z,0.40
2023-01-05T15:38:48.418Z,0.50
2023-01-05T15:41:21.800Z,0.30
2023-01-05T15:43:53.160Z,0.50
2023-01-05T15:46:27.553Z,0.30
2023-01-05T15:48:57.000Z,0.30
2023-01-05T15:51:33.535Z,0.30
2023-01-05T15:54:05.717Z,0.23
2023-01-05T15:56:42.412Z,0.60
2023-01-05T15:59:37.720Z,0.50
2023-01-05T16:02:20.109Z,0.30
2023-01-05T16:04:49.594Z,0.70
2023-01-05T16:07:19.044Z,0.50
2023-01-05T16:09:49.608Z,0.83
2023-01-05T16:12:26.470Z,1.10
2023-01-05T16:15:01.529Z,1.03
2023-01-05T16:17:38.494Z,0.60
2023-01-05T16:20:12.888Z,0.87
2023-01-05T16:23:01.347Z,0.70
2023-01-05T16:25:46.909Z,0.80
2023-01-05T16:28:22.793Z,0.80
2023-01-05T16:30:54.574Z,0.90
2023-01-05T16:33:36.456Z,0.40
2023-01-05T16:36:23.794Z,0.50
2023-01-05T16:38:53.214Z,0.40
2023-01-05T16:41:27.949Z,0.40
2023-01-05T16:44:02.007Z,0.40
2023-01-05T16:46:42.979Z,0.33
2023-01-05T16:49:37.346Z,0.30
2023-01-05T16:52:12.302Z,0.40
2023-01-05T16:54:43.552Z,0.23
2023-01-05T16:57:28.061Z,0.40
2023-01-05T16:59:58.241Z,0.30
2023-01-05T17:02:49.227Z,0.20
2023-01-05T17:05:23.305Z,0.20
2023-01-05T17:08:09.086Z,0.20
2023-01-05T17:10:38.602Z,0.30
2023-01-05T17:13:12.589Z,0.50
2023-01-05T17:15:46.024Z,0.40
2023-01-05T17:20:55.434Z,0.30
2023-01-05T17:23:35.184Z,1.60
2023-01-05T17:26:12.181Z,1.23
2023-01-05T17:28:43.044Z,2.77
2023-01-05T17:33:45.060Z,5.43
2023-01-05T17:38:45.997Z,2.47
2023-01-05T17:41:17.247Z,2.07
2023-01-05T17:43:48.947Z,1.40
2023-01-05T17:46:23.011Z,1.10
2023-01-05T17:48:52.442Z,0.70
2023-01-05T17:51:22.056Z,0.30
2023-01-05T17:53:51.540Z,0.50
2023-01-05T17:56:21.114Z,0.40
2023-01-05T17:58:50.840Z,0.40
2023-01-05T18:01:20.699Z,0.40
2023-01-05T18:03:50.299Z,0.30
2023-01-05T18:06:19.999Z,0.80
2023-01-05T18:08:49.521Z,0.60
2023-01-05T18:11:18.980Z,0.50
2023-01-05T18:13:48.444Z,0.70
2023-01-05T18:16:18.151Z,0.60
2023-01-05T18:18:47.581Z,0.77
2023-01-05T18:21:17.094Z,0.93
2023-01-05T18:23:46.535Z,0.60
2023-01-05T18:26:16.010Z,1.10
2023-01-05T18:28:45.446Z,1.00
2023-01-05T18:31:17.007Z,1.17
2023-01-05T18:33:46.453Z,0.80
2023-01-05T18:36:16.787Z,0.60
2023-01-05T18:38:46.395Z,0.70
2023-01-05T18:41:15.855Z,0.57
2023-01-05T18:43:46.766Z,0.80
2023-01-05T18:46:16.459Z,0.47
2023-01-05T18:48:51.311Z,0.30
2023-01-05T18:51:20.929Z,0.30
2023-01-05T18:53:50.365Z,0.30
2023-01-05T18:56:19.829Z,0.37
2023-01-05T18:58:49.252Z,0.40
2023-01-05T19:01:21.385Z,0.30
2023-01-05T19:03:52.818Z,0.30
2023-01-05T19:06:25.920Z,0.30
2023-01-05T19:08:55.394Z,0.30
2023-01-05T19:11:27.641Z,0.40
2023-01-05T19:14:00.662Z,0.20
2023-01-05T19:16:33.327Z,0.40
2023-01-05T19:19:08.436Z,0.30
2023-01-05T19:21:41.477Z,0.60
2023-01-05T19:24:15.506Z,0.70
2023-01-05T19:26:46.320Z,1.83
2023-01-05T19:29:17.251Z,1.23
2023-01-05T19:31:49.099Z,0.90
2023-01-05T19:34:19.783Z,0.90
2023-01-05T19:36:49.569Z,0.50
2023-01-05T19:39:22.307Z,0.47
2023-01-05T19:41:52.691Z,0.47
2023-01-05T19:44:24.111Z,0.40
2023-01-05T19:46:54.245Z,0.30
2023-01-05T19:49:27.364Z,0.50
2023-01-05T19:51:57.364Z,0.30
2023-01-05T19:54:27.544Z,0.30
2023-01-05T19:56:57.325Z,0.60
2023-01-05T19:59:29.406Z,0.27
2023-01-05T20:01:58.912Z,0.30
2023-01-05T20:04:29.223Z,0.20
2023-01-05T20:07:02.349Z,0.30
2023-01-05T20:09:31.430Z,0.23
2023-01-05T20:12:13.246Z,0.50
2023-01-05T20:14:34.235Z,0.30
2023-01-05T20:17:10.341Z,0.37
2023-01-05T20:19:40.817Z,0.30
2023-01-05T20:22:15.101Z,0.80
2023-01-05T20:24:45.472Z,0.70
2023-01-05T20:27:18.830Z,0.50
2023-01-05T20:29:48.328Z,0.37
2023-01-05T20:32:22.216Z,0.37
2023-01-05T20:34:59.676Z,0.40
2023-01-05T20:37:33.472Z,0.20
2023-01-05T20:40:05.411Z,0.23
2023-01-05T20:42:36.316Z,0.37
2023-01-05T20:45:06.966Z,0.23
2023-01-05T20:47:47.106Z,0.37
2023-01-05T20:50:08.730Z,0.40
2023-01-05T20:52:38.207Z,0.50
2023-01-05T20:55:07.974Z,0.40
2023-01-05T20:57:37.427Z,0.30
2023-01-05T21:00:07.679Z,0.40
2023-01-05T21:02:37.442Z,0.70
2023-01-05T21:05:07.454Z,0.60
2023-01-05T21:07:37.233Z,0.50
2023-01-05T21:10:06.878Z,0.30
2023-01-05T21:12:36.556Z,0.30
2023-01-05T21:15:06.767Z,0.30
2023-01-05T21:17:36.223Z,0.60
2023-01-05T21:20:06.467Z,0.70
2023-01-05T21:22:36.609Z,0.60
2023-01-05T21:25:06.373Z,0.50
2023-01-05T21:27:38.435Z,0.47
2023-01-05T21:30:09.141Z,0.40
2023-01-05T21:32:38.604Z,0.40
2023-01-05T21:35:09.246Z,0.60
2023-01-05T21:37:38.705Z,0.47
2023-01-05T21:40:09.961Z,0.37
2023-01-05T21:42:43.969Z,0.40
2023-01-05T21:45:14.446Z,0.30
2023-01-05T21:47:43.901Z,0.40
2023-01-05T21:50:16.373Z,0.50
2023-01-05T21:53:03.730Z,0.83
2023-01-05T21:55:50.796Z,0.50
2023-01-05T21:58:20.286Z,0.40
2023-01-05T22:00:49.763Z,0.50
2023-01-05T22:03:19.346Z,0.50
2023-01-05T22:05:51.267Z,0.70
2023-01-05T22:08:22.791Z,0.60
2023-01-05T22:11:00.727Z,0.60
2023-01-05T22:13:30.459Z,0.60
2023-01-05T22:16:00.311Z,0.60
2023-01-05T22:18:30.392Z,0.60
2023-01-05T22:21:08.522Z,0.75
2023-01-05T22:23:38.898Z,0.70
2023-01-05T22:26:14.961Z,0.80
2023-01-05T22:28:47.042Z,0.73
2023-01-05T22:31:20.722Z,0.70
2023-01-05T22:33:53.831Z,0.83
2023-01-05T22:36:24.776Z,0.70
2023-01-05T22:38:55.519Z,0.80
2023-01-05T22:41:29.805Z,0.80
2023-01-05T22:44:02.159Z,0.63
2023-01-05T22:46:32.155Z,0.80
2023-01-05T22:49:02.489Z,0.70
2023-01-05T22:51:38.291Z,0.80
2023-01-05T22:54:07.999Z,0.80
2023-01-05T22:56:38.323Z,0.80
2023-01-05T22:59:07.849Z,0.93
2023-01-05T23:01:44.769Z,0.70
2023-01-05T23:04:15.518Z,0.80
2023-01-05T23:06:45.515Z,0.80
2023-01-05T23:09:18.024Z,0.70
2023-01-05T23:11:47.916Z,0.80
2023-01-05T23:14:19.093Z,0.93
2023-01-05T23:16:48.779Z,0.80
2023-01-05T23:19:19.766Z,1.10
2023-01-05T23:21:49.222Z,1.17
2023-01-05T23:24:18.831Z,1.30
2023-01-05T23:26:48.286Z,0.93
2023-01-05T23:29:17.727Z,1.20
2023-01-05T23:31:47.381Z,0.90
2023-01-05T23:34:16.867Z,1.07
2023-01-05T23:36:46.485Z,1.03
2023-01-05T23:39:15.935Z,0.83
2023-01-05T23:41:45.370Z,1.00
2023-01-05T23:44:14.999Z,0.70
2023-01-05T23:46:44.603Z,0.90
2023-01-05T23:49:14.069Z,1.00
2023-01-05T23:51:43.520Z,1.20
2023-01-05T23:54:12.958Z,1.00
2023-01-05T23:56:42.408Z,0.87
2023-01-05T23:59:12.124Z,1.00
